Madeira/Funchal Airport

Airport
ICAO code: 
LPMA
IATA Code: 
FNC
Summary
ICAO Region: 
EUR
Territory: 
Location: 
Santa Catarina, Região Autónoma da Madeira
Serving: 
Funchal
Elevation: 
192 ft
Coordinates: 
Aerial View: 
32° 41' 52" N, 16° 46' 28" W
Airport CFIT: 
Runway Visual Perspective
Airport RE: 
Crosswind Landings
Airport WX: 
Low Level Turbulence
Metar
Observation
LPMA 170330Z 18011KT 160V220 9999 SCT016 19/11 Q1022
Station
Aeroporto Da Madeira
Date/Time
2022-01-17 03:30:00
Wind direction
180°
Wind speed
11 kts
Lowest cloud amount
scattered clouds
Temperature
19°C
Dew point
11°C
Humidity
59%
QNH
1022 hPa
Weather condition
n/a

Cristiano Ronaldo International Airport, Madeira, commonly known as Madeira Airport or Funchal Airport , is an international airport in the civil parish of Santa Cruz in the Portuguese archipelago and autonomous region of Madeira.

Climatology

Temperate mediterranean climate (Köppen climate classification Csb)

Runways

Designator Length Width Surface Rops
5/23 2777 45 ASP Yes/Yes
Airport map: 
Aerial View: 

SKYbrary Partners:

Safety knowledge contributed by: